Time;durP1;ratioP1;P1;durP2;ratioP2;P2;SDS_P1;SDS_P2;PMS_P1;PMS_P2;Temp;Humidity;BMP_temperature;BMP_pressure;BME280_temperature;BME280_humidity;BME280_pressure;Samples;Min_cycle;Max_cycle;Signal;HPM_P1;HPM_P2
2023/08/23 00:00:09;;;;;;;7.07;1.40;;;;;;;22.89;63.23;101465.59;5044511;28;20518;-62
2023/08/23 00:02:39;;;;;;;6.47;1.70;;;;;;;23.23;61.83;101460.88;5035544;28;20055;-62
2023/08/23 00:05:07;;;;;;;4.35;1.45;;;;;;;22.66;62.99;101456.44;5053158;28;20061;-62
2023/08/23 00:07:35;;;;;;;5.45;1.80;;;;;;;22.78;62.96;101455.41;5053311;28;20053;-63
2023/08/23 00:10:05;;;;;;;5.78;1.70;;;;;;;22.89;62.35;101453.56;5052078;28;20432;-62
2023/08/23 00:12:33;;;;;;;9.05;1.90;;;;;;;22.80;62.63;101453.03;5052442;28;20049;-62
2023/08/23 00:15:00;;;;;;;8.13;1.60;;;;;;;22.74;62.60;101449.72;5032995;28;20397;-62
2023/08/23 00:17:28;;;;;;;9.30;1.80;;;;;;;22.77;62.22;101443.34;5033338;28;20053;-62
2023/08/23 00:19:55;;;;;;;7.95;1.80;;;;;;;22.54;63.10;101441.75;5033626;28;20053;-62
2023/08/23 00:22:23;;;;;;;6.07;1.58;;;;;;;22.74;62.59;101440.47;5031729;28;20050;-62
2023/08/23 00:24:54;;;;;;;4.90;1.63;;;;;;;22.61;62.55;101445.53;5036033;28;20056;-62
2023/08/23 00:27:21;;;;;;;7.38;1.70;;;;;;;22.60;62.63;101446.69;5043490;28;20056;-62
2023/08/23 00:29:49;;;;;;;6.13;1.40;;;;;;;22.82;61.98;101448.63;5058848;28;20044;-62
2023/08/23 00:32:16;;;;;;;6.10;2.00;;;;;;;22.63;62.17;101431.09;5030670;28;20041;-62
2023/08/23 00:34:43;;;;;;;7.28;1.92;;;;;;;22.45;62.65;101435.56;5053148;28;20052;-63
2023/08/23 00:37:11;;;;;;;5.78;1.48;;;;;;;22.42;62.38;101425.91;5053147;28;20045;-62
2023/08/23 00:39:38;;;;;;;6.22;1.80;;;;;;;22.57;62.22;101427.78;5052677;28;20057;-63
2023/08/23 00:42:06;;;;;;;6.40;1.60;;;;;;;22.37;62.55;101411.41;5050989;28;20566;-64
2023/08/23 00:44:33;;;;;;;9.45;1.52;;;;;;;22.40;62.03;101407.81;5052984;28;20064;-62
2023/08/23 00:47:01;;;;;;;5.55;1.50;;;;;;;22.32;62.45;101413.31;5047432;28;20060;-61
2023/08/23 00:49:33;;;;;;;5.68;1.52;;;;;;;22.47;62.03;101399.53;5053207;28;20145;-62
2023/08/23 00:52:04;;;;;;;8.15;1.60;;;;;;;22.41;61.50;101399.03;5051291;28;20504;-63
2023/08/23 00:54:31;;;;;;;4.88;1.63;;;;;;;22.50;61.33;101398.75;5052900;28;20068;-63
2023/08/23 00:57:02;;;;;;;6.18;1.42;;;;;;;22.51;60.86;101398.38;5037986;28;20045;-63
2023/08/23 00:59:31;;;;;;;5.78;1.60;;;;;;;22.60;60.58;101396.16;5015608;28;20057;-63
2023/08/23 01:01:59;;;;;;;7.03;1.52;;;;;;;22.42;61.21;101399.84;5048480;28;20042;-63
2023/08/23 01:04:26;;;;;;;5.47;1.52;;;;;;;22.30;61.73;101400.84;5046063;28;20052;-63
2023/08/23 01:07:00;;;;;;;6.30;1.40;;;;;;;22.14;62.17;101400.19;5052858;28;20049;-64
2023/08/23 01:09:57;;;;;;;6.53;1.58;;;;;;;22.29;61.81;101393.63;5051759;28;20069;-62
2023/08/23 01:12:37;;;;;;;5.38;1.50;;;;;;;22.12;62.41;101392.13;5051404;28;20052;-62
2023/08/23 01:15:11;;;;;;;3.50;1.58;;;;;;;22.21;62.21;101401.09;5040666;28;20049;-63
2023/08/23 01:17:42;;;;;;;5.85;1.58;;;;;;;22.37;61.85;101392.53;5032541;28;20045;-62
2023/08/23 01:20:10;;;;;;;;;;;;;;;22.48;61.26;101387.09;5045334;28;20049;-63
2023/08/23 01:22:43;;;;;;;7.55;1.52;;;;;;;22.86;60.34;101398.13;5051921;28;19925;-62
2023/08/23 01:25:10;;;;;;;8.43;1.63;;;;;;;22.66;60.42;101397.44;5050708;28;20057;-62
2023/08/23 01:27:37;;;;;;;4.50;1.20;;;;;;;22.55;60.66;101393.66;5052630;28;20053;-62
2023/08/23 01:30:23;;;;;;;7.95;1.80;;;;;;;22.30;61.37;101403.66;5066105;28;20044;-63
2023/08/23 01:33:13;;;;;;;5.93;1.70;;;;;;;22.31;61.52;101396.88;5020995;28;20053;-63
2023/08/23 01:35:40;;;;;;;;;;;;;;;22.09;62.22;101392.88;5050981;28;20046;-62
2023/08/23 01:38:08;;;;;;;7.70;2.13;;;;;;;22.47;61.04;101391.09;5055462;28;20380;-62
2023/08/23 01:40:36;;;;;;;4.55;1.40;;;;;;;22.23;61.71;101387.50;5038620;28;20056;-62
2023/08/23 01:43:03;;;;;;;5.47;1.60;;;;;;;22.51;61.15;101397.59;5055888;28;20041;-62
2023/08/23 01:45:31;;;;;;;4.30;1.50;;;;;;;22.49;60.80;101403.56;5054978;28;20053;-62
2023/08/23 01:48:01;;;;;;;7.75;1.80;;;;;;;22.36;60.99;101385.31;5044684;28;20060;-63
2023/08/23 01:50:28;;;;;;;5.10;1.67;;;;;;;22.06;61.84;101401.22;5054678;28;20049;-62
2023/08/23 01:52:56;;;;;;;5.38;1.50;;;;;;;21.90;62.78;101398.56;5048253;28;20079;-62
2023/08/23 01:55:23;;;;;;;9.57;2.33;;;;;;;;;;5051677;28;20053;-62
2023/08/23 01:57:50;;;;;;;8.77;1.88;;;;;;;21.92;63.10;101387.78;5036050;28;20060;-62
2023/08/23 02:00:18;;;;;;;8.65;1.73;;;;;;;22.10;62.07;101388.91;5049636;28;20057;-62
2023/08/23 02:02:45;;;;;;;7.95;2.50;;;;;;;21.96;63.01;101391.47;5055351;28;20049;-63
2023/08/23 02:05:13;;;;;;;7.55;2.25;;;;;;;22.18;61.86;101378.59;5054774;28;20049;-63
2023/08/23 02:07:40;;;;;;;5.25;2.28;;;;;;;22.16;61.99;101378.16;5056050;28;20053;-62
2023/08/23 02:10:08;;;;;;;8.70;1.90;;;;;;;22.19;61.70;101375.41;5053716;28;20456;-62
2023/08/23 02:12:35;;;;;;;5.95;1.80;;;;;;;22.25;61.42;101373.91;5053753;28;20065;-62
2023/08/23 02:15:03;;;;;;;6.75;1.88;;;;;;;21.80;63.28;101373.94;5054296;28;20698;-62
2023/08/23 02:17:30;;;;;;;5.78;2.13;;;;;;;21.81;63.18;101369.94;5055530;28;20053;-63
2023/08/23 02:19:58;;;;;;;6.28;1.70;;;;;;;21.75;63.75;101376.19;5050711;28;20053;-62
2023/08/23 02:22:26;;;;;;;6.05;1.40;;;;;;;21.80;63.23;101368.31;5054718;28;20066;-62
2023/08/23 02:24:53;;;;;;;7.78;1.77;;;;;;;21.85;63.62;101356.78;5055052;28;20044;-62
2023/08/23 02:27:20;;;;;;;9.95;1.88;;;;;;;21.76;63.52;101364.59;5046445;28;20049;-62
2023/08/23 02:29:48;;;;;;;7.70;1.63;;;;;;;21.65;64.13;101365.59;5048948;28;20032;-63
2023/08/23 02:32:16;;;;;;;9.82;1.77;;;;;;;21.63;64.40;101363.19;5073877;28;20052;-62
2023/08/23 02:34:43;;;;;;;3.58;1.27;;;;;;;22.05;62.82;101365.94;5071560;28;20120;-62
2023/08/23 02:37:10;;;;;;;5.95;1.58;;;;;;;21.62;64.36;101369.94;5037562;28;20432;-62
2023/08/23 02:39:38;;;;;;;8.52;2.10;;;;;;;21.47;64.79;101370.88;5054077;28;20057;-63
2023/08/23 02:42:05;;;;;;;6.43;1.90;;;;;;;21.62;64.76;101366.34;5051179;28;20046;-62
2023/08/23 02:44:33;;;;;;;13.75;2.13;;;;;;;21.51;64.61;101380.16;5051111;28;20049;-61
2023/08/23 02:47:00;;;;;;;7.68;1.63;;;;;;;21.49;64.98;101378.91;5053617;28;20060;-62
2023/08/23 02:49:27;;;;;;;9.48;2.00;;;;;;;21.29;66.09;101366.09;5054139;28;20368;-63
2023/08/23 02:51:55;;;;;;;7.13;2.13;;;;;;;21.26;66.30;101362.03;5054601;28;20045;-62
2023/08/23 02:54:22;;;;;;;7.97;1.90;;;;;;;21.40;66.00;101359.53;5037042;28;20045;-62
2023/08/23 02:56:49;;;;;;;5.03;1.60;;;;;;;21.49;65.21;101365.72;5037358;28;20049;-63
2023/08/23 02:59:17;;;;;;;4.70;1.60;;;;;;;21.37;65.95;101365.06;5039053;28;20055;-63
2023/08/23 03:01:44;;;;;;;6.55;1.63;;;;;;;21.38;65.76;101383.47;5033479;28;20099;-63
2023/08/23 03:04:12;;;;;;;6.55;1.50;;;;;;;21.25;66.40;101374.44;5034376;28;20034;-62
2023/08/23 03:06:39;;;;;;;8.95;1.83;;;;;;;21.29;66.13;101374.53;5034725;28;20133;-63
2023/08/23 03:09:07;;;;;;;7.13;1.58;;;;;;;21.47;65.68;101370.88;5034697;28;20056;-63
2023/08/23 03:11:34;;;;;;;5.85;1.63;;;;;;;21.58;65.07;101369.09;5034841;28;20046;-62
2023/08/23 03:14:02;;;;;;;3.50;1.45;;;;;;;21.47;65.54;101373.69;5034354;28;20056;-62
2023/08/23 03:16:29;;;;;;;6.40;1.50;;;;;;;21.45;65.66;101373.22;5047489;28;20053;-63
2023/08/23 03:18:57;;;;;;;9.85;1.60;;;;;;;21.48;65.33;101372.47;5054442;28;20447;-62
2023/08/23 03:21:24;;;;;;;4.43;1.50;;;;;;;21.50;65.20;101374.91;5054456;28;20045;-62
2023/08/23 03:23:52;;;;;;;12.90;1.60;;;;;;;21.42;65.09;101361.94;5054096;28;20037;-62
2023/08/23 03:26:20;;;;;;;4.57;1.50;;;;;;;21.55;65.36;101364.22;5034554;28;20057;-64
2023/08/23 03:28:47;;;;;;;5.88;1.50;;;;;;;21.55;65.26;101357.81;5052633;28;20052;-61
2023/08/23 03:31:16;;;;;;;5.55;1.70;;;;;;;21.57;65.20;101367.44;5073327;28;20041;-62
2023/08/23 03:33:45;;;;;;;6.80;1.83;;;;;;;21.26;66.35;101362.03;5060543;28;20636;-61
2023/08/23 03:36:12;;;;;;;10.63;2.10;;;;;;;21.47;65.71;101359.66;5052510;28;20049;-62
2023/08/23 03:38:40;;;;;;;11.32;1.58;;;;;;;21.45;65.89;101352.78;5052697;28;20052;-61
2023/08/23 03:41:14;;;;;;;5.50;1.55;;;;;;;21.50;65.91;101352.47;5053925;28;20048;-62
2023/08/23 03:43:41;;;;;;;5.32;1.60;;;;;;;21.50;65.67;101356.09;5051857;28;20056;-62
2023/08/23 03:46:09;;;;;;;10.05;1.80;;;;;;;21.34;66.13;101346.97;5053631;28;20060;-62
2023/08/23 03:48:36;;;;;;;9.32;1.70;;;;;;;21.39;66.20;101343.91;5036049;28;20416;-63
2023/08/23 03:51:03;;;;;;;3.22;1.20;;;;;;;21.49;65.66;101345.28;5047971;28;20056;-61
2023/08/23 03:53:31;;;;;;;5.15;1.45;;;;;;;21.17;66.66;101351.06;5051405;28;20049;-62
2023/08/23 03:55:58;;;;;;;5.55;1.60;;;;;;;21.13;67.10;101354.97;5052555;28;20056;-62
2023/08/23 03:58:28;;;;;;;7.05;1.98;;;;;;;21.36;66.22;101361.44;5052126;28;20049;-63
2023/08/23 04:00:56;;;;;;;6.13;1.33;;;;;;;21.24;67.08;101356.00;5052587;28;20060;-62
2023/08/23 04:03:23;;;;;;;7.22;1.50;;;;;;;21.44;66.65;101354.81;5052995;28;20052;-62
2023/08/23 04:05:50;;;;;;;5.00;1.38;;;;;;;21.33;66.46;101359.38;5054070;28;20060;-62
2023/08/23 04:08:18;;;;;;;5.68;1.75;;;;;;;21.06;67.66;101352.03;5049187;28;20053;-63
2023/08/23 04:10:47;;;;;;;5.90;1.65;;;;;;;21.35;67.23;101362.63;5052349;28;20584;-61
2023/08/23 04:13:15;;;;;;;6.50;2.10;;;;;;;21.32;66.76;101368.16;5051893;28;20449;-62
2023/08/23 04:15:44;;;;;;;6.97;1.52;;;;;;;21.30;67.22;101364.91;5035932;28;20410;-62
2023/08/23 04:18:11;;;;;;;7.45;1.63;;;;;;;21.06;67.84;101364.03;5049272;28;20064;-62
2023/08/23 04:20:40;;;;;;;8.10;1.85;;;;;;;21.08;67.53;101366.47;5038302;28;20049;-62
2023/08/23 04:23:07;;;;;;;4.78;1.50;;;;;;;21.30;67.34;101359.31;5051541;28;20064;-61
2023/08/23 04:25:35;;;;;;;4.75;1.50;;;;;;;21.52;65.93;101355.72;5044359;28;20045;-62
2023/08/23 04:28:03;;;;;;;7.63;1.50;;;;;;;21.19;67.24;101364.69;5049019;28;20068;-61
2023/08/23 04:30:30;;;;;;;7.72;1.70;;;;;;;20.80;68.71;101363.84;5065801;28;20076;-61
2023/08/23 04:32:58;;;;;;;4.68;1.55;;;;;;;20.86;68.84;101359.59;5070920;28;20052;-62
2023/08/23 04:35:26;;;;;;;7.43;1.80;;;;;;;20.76;69.51;101367.75;5059291;28;20041;-61
2023/08/23 04:37:53;;;;;;;7.10;1.63;;;;;;;20.87;69.00;101364.00;5035747;28;20049;-62
2023/08/23 04:40:21;;;;;;;6.45;1.95;;;;;;;21.15;68.62;101359.03;5048322;28;20057;-62
2023/08/23 04:42:49;;;;;;;6.82;1.50;;;;;;;21.38;67.16;101367.50;5053324;28;20057;-60
2023/08/23 04:45:16;;;;;;;4.63;1.77;;;;;;;21.38;67.00;101358.25;5052886;28;20072;-63
2023/08/23 04:47:44;;;;;;;10.15;1.70;;;;;;;21.34;67.06;101360.19;5051618;28;20056;-62
2023/08/23 04:50:13;;;;;;;8.38;1.90;;;;;;;20.94;69.09;101361.34;5052117;28;20052;-63
2023/08/23 04:52:40;;;;;;;6.05;1.63;;;;;;;21.20;68.37;101364.31;5052325;28;20048;-62
2023/08/23 04:55:09;;;;;;;5.68;1.70;;;;;;;21.37;67.55;101357.47;5051529;28;20068;-62
2023/08/23 04:57:37;;;;;;;4.75;1.35;;;;;;;21.27;67.87;101360.84;5047722;28;20053;-62
2023/08/23 05:00:08;;;;;;;6.25;1.58;;;;;;;20.86;69.62;101358.75;5053170;28;20049;-62
2023/08/23 05:02:37;;;;;;;8.43;2.00;;;;;;;20.59;70.65;101363.34;5051938;28;20045;-63
2023/08/23 05:05:07;;;;;;;6.75;1.70;;;;;;;20.59;70.64;101362.56;5055191;28;20056;-62
2023/08/23 05:07:35;;;;;;;10.18;1.95;;;;;;;20.65;70.58;101361.09;5056069;28;20400;-63
2023/08/23 05:10:04;;;;;;;9.95;2.30;;;;;;;20.66;70.54;101369.13;5055661;28;20056;-62
2023/08/23 05:12:32;;;;;;;7.22;2.15;;;;;;;20.84;70.10;101369.50;5039251;28;20049;-63
2023/08/23 05:14:59;;;;;;;8.20;1.90;;;;;;;20.66;70.39;101368.31;5042270;28;20061;-62
2023/08/23 05:17:27;;;;;;;4.53;1.63;;;;;;;20.61;70.72;101369.41;5037049;28;20053;-63
2023/08/23 05:19:55;;;;;;;8.38;1.98;;;;;;;20.60;71.35;101362.19;5019406;28;20049;-62
2023/08/23 05:22:22;;;;;;;8.30;1.92;;;;;;;20.70;70.75;101367.22;5035819;28;20045;-63
2023/08/23 05:24:50;;;;;;;6.05;2.22;;;;;;;20.71;70.79;101368.03;5038653;28;20717;-63
2023/08/23 05:27:17;;;;;;;5.57;2.05;;;;;;;20.80;70.77;101371.44;5045990;28;20052;-63
2023/08/23 05:29:45;;;;;;;6.97;1.63;;;;;;;20.42;72.03;101372.16;5054517;28;20052;-64
2023/08/23 05:32:12;;;;;;;6.68;1.83;;;;;;;20.56;71.73;101361.28;5036546;28;20516;-61
2023/08/23 05:34:40;;;;;;;6.18;1.80;;;;;;;20.53;72.05;101364.81;5037556;28;20680;-61
2023/08/23 05:37:09;;;;;;;14.30;2.50;;;;;;;20.60;71.78;101370.59;5055392;28;20061;-63
2023/08/23 05:39:36;;;;;;;6.93;2.50;;;;;;;20.65;71.94;101372.28;5055836;28;20060;-63
2023/08/23 05:42:06;;;;;;;;;;;;;;;20.72;71.47;101373.25;5055828;28;20060;-62
2023/08/23 05:44:33;;;;;;;11.15;2.53;;;;;;;20.97;70.51;101376.63;5055408;28;20360;-63
2023/08/23 05:47:01;;;;;;;11.45;2.40;;;;;;;20.79;70.75;101372.59;5051166;28;20588;-62
2023/08/23 05:49:29;;;;;;;9.95;2.20;;;;;;;20.91;70.83;101375.28;5054889;28;20053;-63
2023/08/23 05:51:56;;;;;;;23.10;2.83;;;;;;;20.79;70.82;101372.59;5042114;28;20041;-62
2023/08/23 05:54:24;;;;;;;13.07;2.53;;;;;;;20.76;71.34;101371.38;5036167;28;20053;-63
2023/08/23 05:56:51;;;;;;;11.80;2.72;;;;;;;20.92;70.62;101358.09;5036279;28;20053;-63
2023/08/23 05:59:19;;;;;;;9.05;2.50;;;;;;;20.89;70.50;101356.03;5036010;28;20057;-61
2023/08/23 06:01:46;;;;;;;10.95;2.30;;;;;;;20.95;70.93;101345.34;5036221;28;20420;-62
2023/08/23 06:04:14;;;;;;;6.20;1.95;;;;;;;20.95;70.82;101359.38;5049472;28;20053;-63
2023/08/23 06:06:41;;;;;;;11.00;2.47;;;;;;;21.29;69.85;101366.09;5055615;28;20373;-62
2023/08/23 06:09:09;;;;;;;10.90;2.60;;;;;;;21.33;69.10;101372.56;5055836;28;20642;-64
2023/08/23 06:11:37;;;;;;;9.93;2.50;;;;;;;21.20;69.55;101367.13;5055656;28;20053;-63
2023/08/23 06:14:30;;;;;;;13.77;2.13;;;;;;;21.17;69.88;101370.69;5055497;28;20037;-62
2023/08/23 06:16:59;;;;;;;23.10;3.20;;;;;;;20.95;70.17;101364.97;5053612;28;20056;-62
2023/08/23 06:19:32;;;;;;;16.80;2.90;;;;;;;20.74;71.45;101365.31;5053805;28;20053;-64
2023/08/23 06:22:00;;;;;;;12.40;2.75;;;;;;;20.81;71.29;101357.06;5039581;28;20177;-65
2023/08/23 06:24:27;;;;;;;15.98;2.92;;;;;;;21.17;70.46;101361.44;5055617;28;20041;-63
2023/08/23 06:26:55;;;;;;;15.57;3.55;;;;;;;21.12;70.62;101365.38;5054262;28;20489;-63
2023/08/23 06:29:22;;;;;;;10.45;3.03;;;;;;;20.93;70.93;101361.72;5058268;28;20048;-62
2023/08/23 06:31:50;;;;;;;6.25;2.40;;;;;;;21.02;70.70;101360.38;5075781;28;20499;-63
2023/08/23 06:34:17;;;;;;;6.68;2.40;;;;;;;21.15;70.32;101370.22;5058432;28;20052;-64
2023/08/23 06:36:45;;;;;;;15.25;2.30;;;;;;;21.39;69.83;101369.13;5055022;28;20048;-63
2023/08/23 06:39:13;;;;;;;7.03;2.17;;;;;;;21.58;68.39;101357.06;5033510;28;20064;-63
2023/08/23 06:41:54;;;;;;;10.55;2.58;;;;;;;21.40;68.83;101365.13;5054607;28;20404;-62
2023/08/23 06:44:21;;;;;;;11.93;2.58;;;;;;;21.25;69.67;101369.63;5053634;28;20389;-61
2023/08/23 06:46:49;;;;;;;9.93;2.67;;;;;;;21.04;70.67;101351.59;5054782;28;20032;-62
2023/08/23 06:49:16;;;;;;;18.13;3.60;;;;;;;21.00;70.37;101367.50;5053543;28;20053;-62
2023/08/23 06:51:46;;;;;;;10.63;2.33;;;;;;;21.05;70.85;101367.19;5055138;28;20049;-65
2023/08/23 06:54:13;;;;;;;11.90;3.38;;;;;;;21.11;70.57;101362.94;5054810;28;20049;-63
2023/08/23 06:56:40;;;;;;;12.60;3.03;;;;;;;20.92;70.93;101366.50;5050400;28;20087;-62
2023/08/23 06:59:08;;;;;;;14.55;2.88;;;;;;;21.03;70.73;101372.34;5054953;28;20053;-61
2023/08/23 07:01:35;;;;;;;14.18;2.83;;;;;;;20.95;71.17;101379.78;5054761;28;20057;-61
2023/08/23 07:04:02;;;;;;;19.60;3.13;;;;;;;21.12;70.43;101382.19;5054127;28;20048;-63
2023/08/23 07:06:31;;;;;;;10.07;2.90;;;;;;;21.14;70.51;101391.03;5053382;28;20456;-62
2023/08/23 07:08:58;;;;;;;18.95;3.60;;;;;;;21.33;69.50;101389.38;5054861;28;20063;-65
2023/08/23 07:11:26;;;;;;;16.27;3.38;;;;;;;21.29;70.02;101394.91;5053252;28;20052;-64
2023/08/23 07:13:53;;;;;;;12.88;2.95;;;;;;;21.27;69.25;101392.50;5033843;28;20605;-63
2023/08/23 07:16:20;;;;;;;10.88;2.63;;;;;;;21.29;69.43;101391.31;5054489;28;20049;-62
2023/08/23 07:18:48;;;;;;;16.08;2.85;;;;;;;21.35;69.70;101387.03;5053196;28;20056;-62
2023/08/23 07:21:15;;;;;;;10.90;2.92;;;;;;;21.59;69.03;101384.72;5054180;28;20053;-62
2023/08/23 07:23:43;;;;;;;8.90;2.60;;;;;;;21.92;67.56;101378.53;5054587;28;20040;-62
2023/08/23 07:26:10;;;;;;;8.43;2.60;;;;;;;21.88;67.29;101386.09;5053950;28;20053;-63
2023/08/23 07:28:38;;;;;;;9.55;2.78;;;;;;;;;;5046312;28;20053;-63
2023/08/23 07:31:05;;;;;;;14.00;3.20;;;;;;;21.79;67.58;101389.13;5070508;28;20052;-64
2023/08/23 07:33:33;;;;;;;11.77;3.00;;;;;;;21.86;67.67;101392.06;5074088;28;20051;-62
2023/08/23 07:36:01;;;;;;;13.95;3.33;;;;;;;21.66;68.17;101387.66;5060089;28;20571;-63
2023/08/23 07:38:31;;;;;;;14.73;2.85;;;;;;;21.75;68.03;101385.44;5052394;28;20060;-63
2023/08/23 07:41:00;;;;;;;11.65;3.40;;;;;;;22.18;66.51;101378.59;5052530;28;20053;-65
2023/08/23 07:43:27;;;;;;;11.10;2.80;;;;;;;22.41;65.62;101392.59;5053061;28;20065;-63
2023/08/23 07:45:59;;;;;;;11.23;3.53;;;;;;;22.28;65.62;101389.19;5048172;28;20049;-62
2023/08/23 07:48:27;;;;;;;21.98;3.63;;;;;;;22.74;64.47;101393.56;5053875;28;20053;-64
2023/08/23 07:50:55;;;;;;;18.20;3.13;;;;;;;22.67;64.56;101393.44;5052377;28;20056;-63
2023/08/23 07:53:23;;;;;;;11.50;3.20;;;;;;;22.77;64.28;101394.81;5054144;28;20056;-63
2023/08/23 07:55:51;;;;;;;12.57;3.35;;;;;;;22.85;63.62;101397.34;5054021;28;20041;-64
2023/08/23 07:58:18;;;;;;;17.15;3.63;;;;;;;22.63;64.49;101392.56;5053511;28;20057;-62
2023/08/23 08:00:47;;;;;;;13.55;3.00;;;;;;;22.52;64.52;101393.56;5034483;28;20052;-63
2023/08/23 08:03:14;;;;;;;18.40;3.17;;;;;;;22.91;63.63;101401.41;5051640;28;20547;-62
2023/08/23 08:05:42;;;;;;;14.07;3.47;;;;;;;22.73;63.83;101397.56;5052992;28;20041;-62
2023/08/23 08:08:10;;;;;;;13.63;3.10;;;;;;;22.72;63.88;101393.13;5053833;28;20053;-62
2023/08/23 08:10:38;;;;;;;17.58;3.15;;;;;;;22.92;63.42;101388.19;5052052;28;20412;-62
2023/08/23 08:13:05;;;;;;;18.48;3.47;;;;;;;23.14;63.00;101392.88;5036300;28;20526;-63
2023/08/23 08:15:33;;;;;;;15.20;3.05;;;;;;;22.80;63.84;101394.03;5053221;28;20052;-63
2023/08/23 08:18:00;;;;;;;14.82;3.15;;;;;;;23.00;63.17;101393.50;5041964;28;20049;-63
2023/08/23 08:20:28;;;;;;;12.13;3.20;;;;;;;22.84;63.74;101387.25;5037858;28;20056;-64
2023/08/23 08:22:55;;;;;;;17.65;3.30;;;;;;;22.67;64.16;101398.25;5053753;28;20496;-63
2023/08/23 08:25:22;;;;;;;11.45;2.55;;;;;;;23.03;63.65;101394.78;5052799;28;20570;-61
2023/08/23 08:27:50;;;;;;;19.42;3.70;;;;;;;23.26;62.48;101385.03;5047445;28;20413;-65
2023/08/23 08:30:18;;;;;;;21.25;13.80;;;;;;;23.47;61.74;101383.69;5064045;28;20052;-62
2023/08/23 08:32:46;;;;;;;12.65;3.35;;;;;;;23.39;61.68;101382.78;5064041;28;20068;-65
2023/08/23 08:35:13;;;;;;;11.77;3.35;;;;;;;23.30;62.14;101380.28;5022983;28;20041;-63
2023/08/23 08:37:40;;;;;;;15.23;3.30;;;;;;;23.70;61.28;101384.34;5053434;28;20049;-63
2023/08/23 08:40:09;;;;;;;16.10;3.72;;;;;;;23.62;61.38;101391.09;5055965;28;20064;-65
2023/08/23 08:42:37;;;;;;;12.63;3.70;;;;;;;23.66;60.74;101387.09;5056214;28;20136;-63
2023/08/23 08:45:05;;;;;;;27.63;3.35;;;;;;;23.98;60.33;101396.69;5057385;28;20053;-63
2023/08/23 08:47:33;;;;;;;13.05;3.17;;;;;;;23.63;60.52;101393.50;5057163;28;20049;-63
2023/08/23 08:50:01;;;;;;;17.00;3.78;;;;;;;23.76;60.69;101394.88;5055700;28;20041;-63
2023/08/23 08:52:29;;;;;;;14.63;3.63;;;;;;;23.91;59.78;101393.00;5057316;28;20045;-62
2023/08/23 08:54:57;;;;;;;11.32;2.70;;;;;;;24.04;59.75;101400.78;5056701;28;20045;-63
2023/08/23 08:57:25;;;;;;;10.55;2.83;;;;;;;24.16;59.67;101400.53;5055947;28;20041;-62
2023/08/23 08:59:55;;;;;;;16.52;3.40;;;;;;;24.22;59.15;101403.75;5056429;28;20049;-63
2023/08/23 09:02:23;;;;;;;12.43;3.33;;;;;;;24.43;58.89;101398.31;5056780;28;20049;-62
2023/08/23 09:04:51;;;;;;;9.48;3.50;;;;;;;24.29;58.92;101403.81;5057151;28;20079;-62
2023/08/23 09:07:18;;;;;;;7.80;2.75;;;;;;;24.34;58.53;101401.47;5055798;28;20459;-62
2023/08/23 09:09:46;;;;;;;12.75;3.60;;;;;;;24.17;59.24;101409.75;5052575;28;20524;-65
2023/08/23 09:12:13;;;;;;;16.33;3.33;;;;;;;23.99;60.00;101412.41;5056753;28;20064;-62
2023/08/23 09:14:40;;;;;;;14.52;3.10;;;;;;;23.98;59.83;101407.94;5055202;28;20061;-62
2023/08/23 09:17:08;;;;;;;13.95;3.35;;;;;;;24.20;59.25;101401.34;5056298;28;20049;-62
2023/08/23 09:19:39;;;;;;;12.07;3.65;;;;;;;24.19;59.42;101401.72;5039108;28;20045;-61
2023/08/23 09:22:07;;;;;;;14.98;3.33;;;;;;;24.26;59.26;101393.34;5056569;28;20053;-63
2023/08/23 09:24:35;;;;;;;10.45;3.10;;;;;;;24.60;58.17;101388.38;5064685;28;20049;-64
2023/08/23 09:27:05;;;;;;;13.70;3.60;;;;;;;24.63;57.85;101393.22;5054874;28;20045;-64
2023/08/23 09:29:32;;;;;;;18.58;3.00;;;;;;;24.55;58.09;101394.38;5056606;28;20479;-63
2023/08/23 09:32:00;;;;;;;7.88;2.80;;;;;;;24.75;57.87;101390.94;5076760;28;20063;-63
2023/08/23 09:34:27;;;;;;;9.70;3.45;;;;;;;24.83;56.93;101394.56;5075093;28;20043;-64
2023/08/23 09:37:05;;;;;;;13.15;2.80;;;;;;;25.11;56.34;101391.91;5056294;28;20055;-63
2023/08/23 09:39:33;;;;;;;12.43;2.92;;;;;;;25.33;56.17;101385.97;5056764;28;20048;-62
2023/08/23 09:42:05;;;;;;;12.43;3.35;;;;;;;25.12;55.63;101390.72;5051982;28;20496;-64
2023/08/23 09:44:37;;;;;;;10.00;3.13;;;;;;;25.43;55.45;101398.53;5054395;28;20049;-63
2023/08/23 09:47:05;;;;;;;12.65;3.28;;;;;;;25.74;54.33;101395.00;5054680;28;20456;-63
2023/08/23 09:49:36;;;;;;;13.43;3.15;;;;;;;25.79;54.34;101393.78;5038529;28;20668;-63
2023/08/23 09:52:03;;;;;;;8.73;3.30;;;;;;;25.97;53.48;101380.50;5055665;28;20071;-63
2023/08/23 09:54:44;;;;;;;12.02;3.13;;;;;;;25.78;53.36;101386.53;5056193;28;20044;-63
2023/08/23 09:57:31;;;;;;;18.83;3.77;;;;;;;25.64;54.04;101378.03;5052231;28;20049;-63
2023/08/23 09:59:59;;;;;;;10.75;2.83;;;;;;;26.07;53.20;101382.56;5054975;28;20056;-64
2023/08/23 10:02:28;;;;;;;9.68;3.60;;;;;;;26.18;53.51;101375.72;5055469;28;20048;-62
2023/08/23 10:04:56;;;;;;;17.25;3.20;;;;;;;26.06;52.69;101370.47;5056790;28;20548;-63
2023/08/23 10:07:23;;;;;;;9.55;3.08;;;;;;;26.01;52.83;101364.38;5055409;28;20049;-62
2023/08/23 10:09:51;;;;;;;12.35;3.47;;;;;;;26.45;52.11;101359.13;5037478;28;20053;-64
2023/08/23 10:12:20;;;;;;;16.48;2.97;;;;;;;26.51;51.93;101361.16;5054534;28;20057;-63
2023/08/23 10:14:49;;;;;;;12.55;3.45;;;;;;;26.69;51.02;101354.69;5051084;28;20053;-64
2023/08/23 10:17:18;;;;;;;13.80;3.45;;;;;;;26.45;52.12;101351.47;5055614;28;20059;-63
2023/08/23 10:19:49;;;;;;;9.25;2.92;;;;;;;26.90;50.68;101351.81;5047744;28;20049;-63
2023/08/23 10:22:17;;;;;;;15.50;3.28;;;;;;;27.18;50.00;101340.38;5053112;28;20049;-63
2023/08/23 10:24:49;;;;;;;10.32;3.38;;;;;;;26.89;50.36;101353.00;5050695;28;20050;-62
2023/08/23 10:27:17;;;;;;;6.82;2.70;;;;;;;26.91;50.21;101353.41;5051680;28;20053;-62
2023/08/23 10:29:53;;;;;;;9.43;2.95;;;;;;;27.12;50.01;101344.84;5061285;28;20403;-62
2023/08/23 10:32:38;;;;;;;15.60;3.88;;;;;;;27.17;49.96;101333.91;5063835;28;20695;-63
2023/08/23 10:35:22;;;;;;;12.52;3.20;;;;;;;27.43;48.89;101327.75;5055532;28;20052;-63
2023/08/23 10:37:52;;;;;;;10.27;2.90;;;;;;;27.48;48.57;101330.13;5053772;28;20515;-64
2023/08/23 10:40:20;;;;;;;13.43;3.58;;;;;;;27.52;48.37;101335.78;5055347;28;20052;-68
2023/08/23 10:42:51;;;;;;;9.23;2.85;;;;;;;27.86;48.09;101331.06;5037453;28;20424;-63
2023/08/23 10:45:18;;;;;;;11.52;3.22;;;;;;;28.21;47.05;101330.81;5052072;28;20065;-65
2023/08/23 10:47:49;;;;;;;5.75;2.70;;;;;;;28.08;46.99;101341.06;5067928;28;20595;-63
2023/08/23 10:50:18;;;;;;;8.23;3.45;;;;;;;27.91;47.12;101342.00;5050774;28;20060;-66
2023/08/23 10:52:49;;;;;;;14.52;3.67;;;;;;;27.68;47.52;101344.56;5037378;28;20480;-62
2023/08/23 10:55:17;;;;;;;9.10;2.70;;;;;;;27.48;48.30;101337.81;5055368;28;20529;-63
2023/08/23 10:57:44;;;;;;;7.75;3.03;;;;;;;27.59;47.85;101333.72;5054680;28;20056;-65
2023/08/23 11:00:13;;;;;;;7.93;3.35;;;;;;;27.85;47.11;101340.00;5055283;28;20053;-64
2023/08/23 11:02:41;;;;;;;8.02;3.33;;;;;;;28.04;47.23;101337.44;5052607;28;20057;-64
2023/08/23 11:05:10;;;;;;;11.30;2.92;;;;;;;28.18;46.30;101333.69;5035746;28;20053;-63
2023/08/23 11:07:37;;;;;;;7.13;3.03;;;;;;;28.56;46.24;101326.84;5048785;28;20048;-63
2023/08/23 11:10:08;;;;;;;9.32;2.95;;;;;;;28.60;46.10;101322.75;5054936;28;20045;-63
2023/08/23 11:12:36;;;;;;;14.85;3.80;;;;;;;28.71;45.74;101328.31;5054570;28;20420;-64
2023/08/23 11:15:04;;;;;;;9.65;2.70;;;;;;;28.47;46.24;101309.53;5054349;28;20037;-63
2023/08/23 11:17:31;;;;;;;8.93;3.17;;;;;;;28.40;46.48;101303.94;5054388;28;20041;-62
2023/08/23 11:20:00;;;;;;;7.65;2.80;;;;;;;28.69;46.29;101303.22;5053493;28;20049;-62
2023/08/23 11:22:28;;;;;;;11.82;3.17;;;;;;;29.04;45.19;101313.31;5048354;28;20072;-65
2023/08/23 11:24:57;;;;;;;8.20;2.80;;;;;;;29.19;44.77;101303.41;5057817;28;20062;-64
2023/08/23 11:27:24;;;;;;;8.77;3.05;;;;;;;28.98;45.47;101300.03;5053456;28;20413;-63
2023/08/23 11:29:52;;;;;;;11.98;3.10;;;;;;;28.90;45.22;101302.16;5060468;28;20044;-64